Time;durP1;ratioP1;P1;durP2;ratioP2;P2;SDS_P1;SDS_P2;PMS_P1;PMS_P2;Temp;Humidity;BMP_temperature;BMP_pressure;BME280_temperature;BME280_humidity;BME280_pressure;Samples;Min_cycle;Max_cycle;Signal;HPM_P1;HPM_P2
2023/08/08 00:01:59;;;;;;;4.70;2.55;;;14.40;99.90;;;;;;5116203;28;20181;-48
2023/08/08 00:04:25;;;;;;;6.63;2.50;;;14.30;99.90;;;;;;5116058;28;20197;-48
2023/08/08 00:06:50;;;;;;;7.15;2.65;;;14.30;99.90;;;;;;5116066;28;20248;-49
2023/08/08 00:09:16;;;;;;;5.30;2.47;;;14.30;99.90;;;;;;5115534;28;20179;-53
2023/08/08 00:11:42;;;;;;;5.95;2.55;;;14.40;99.90;;;;;;5115502;28;20177;-52
2023/08/08 00:14:07;;;;;;;5.55;2.53;;;14.30;99.90;;;;;;5115892;27;20252;-48
2023/08/08 00:16:33;;;;;;;6.75;2.60;;;14.30;99.90;;;;;;5114583;28;20227;-51
2023/08/08 00:18:59;;;;;;;7.25;2.67;;;14.30;99.90;;;;;;5115585;28;20678;-53
2023/08/08 00:21:24;;;;;;;4.50;2.75;;;14.20;99.90;;;;;;5116216;28;20667;-53
2023/08/08 00:23:50;;;;;;;5.93;3.13;;;14.30;99.90;;;;;;5116053;28;20177;-52
2023/08/08 00:26:15;;;;;;;6.32;2.70;;;14.30;99.90;;;;;;5115907;28;20585;-52
2023/08/08 00:28:41;;;;;;;6.38;2.78;;;14.30;99.90;;;;;;5115567;28;20634;-52
2023/08/08 00:31:07;;;;;;;6.30;2.90;;;14.40;99.90;;;;;;5115565;28;20205;-52
2023/08/08 00:33:32;;;;;;;7.93;3.03;;;14.30;99.90;;;;;;5115502;28;20260;-50
2023/08/08 00:35:58;;;;;;;6.53;3.05;;;14.30;99.90;;;;;;5115737;28;20241;-50
2023/08/08 00:38:23;;;;;;;7.03;2.88;;;14.30;99.90;;;;;;5115554;28;20253;-53
2023/08/08 00:40:49;;;;;;;8.68;3.20;;;14.30;99.90;;;;;;5115383;28;20201;-49
2023/08/08 00:43:15;;;;;;;5.97;2.88;;;14.40;99.90;;;;;;5115288;28;20196;-52
2023/08/08 00:45:43;;;;;;;7.85;2.97;;;14.40;99.90;;;;;;5115290;28;20541;-50
2023/08/08 00:48:09;;;;;;;5.70;3.00;;;14.30;99.90;;;;;;5115150;28;20268;-52
2023/08/08 00:50:36;;;;;;;6.90;2.70;;;14.30;99.90;;;;;;5115259;28;20200;-51
2023/08/08 00:53:04;;;;;;;7.28;2.97;;;14.40;99.90;;;;;;5115183;28;20564;-52
2023/08/08 00:55:30;;;;;;;5.88;2.70;;;14.40;99.90;;;;;;5114779;28;20161;-51
2023/08/08 00:57:56;;;;;;;8.00;3.45;;;14.20;99.90;;;;;;5114923;28;20175;-52
2023/08/08 01:00:22;;;;;;;5.95;3.08;;;14.30;99.90;;;;;;5114999;28;20209;-51
2023/08/08 01:02:48;;;;;;;8.25;3.47;;;14.30;99.90;;;;;;5114624;28;20173;-52
2023/08/08 01:05:13;;;;;;;9.40;3.40;;;14.30;99.90;;;;;;5114838;28;20590;-48
2023/08/08 01:07:53;;;;;;;9.23;3.58;;;14.30;99.90;;;;;;5114829;28;20638;-50
2023/08/08 01:10:33;;;;;;;11.68;3.25;;;14.30;99.90;;;;;;5114840;28;20607;-53
2023/08/08 01:13:10;;;;;;;7.53;3.10;;;14.30;99.90;;;;;;5114771;28;20157;-50
2023/08/08 01:15:36;;;;;;;6.60;3.28;;;14.30;99.90;;;;;;5114462;28;20645;-50
2023/08/08 01:18:06;;;;;;;7.22;3.10;;;14.30;99.90;;;;;;5114508;28;20181;-49
2023/08/08 01:20:35;;;;;;;9.35;3.47;;;14.30;99.90;;;;;;5114697;28;20661;-49
2023/08/08 01:23:16;;;;;;;8.65;3.38;;;14.30;99.90;;;;;;5114244;28;20208;-48
2023/08/08 01:25:42;;;;;;;8.60;3.25;;;14.30;99.90;;;;;;5114283;28;20569;-49
2023/08/08 01:28:08;;;;;;;7.50;3.45;;;14.30;99.90;;;;;;5114477;28;20200;-48
2023/08/08 01:30:34;;;;;;;9.80;3.53;;;14.30;99.90;;;;;;5114462;28;20631;-48
2023/08/08 01:32:59;;;;;;;8.32;3.83;;;14.30;99.90;;;;;;5113981;28;20269;-48
2023/08/08 01:35:29;;;;;;;6.05;3.35;;;14.30;99.90;;;;;;5114629;28;20161;-49
2023/08/08 01:38:03;;;;;;;9.80;3.17;;;14.30;99.90;;;;;;5114302;28;20177;-49
2023/08/08 01:40:29;;;;;;;10.82;4.07;;;14.30;99.90;;;;;;5114450;28;20158;-53
2023/08/08 01:42:56;;;;;;;9.07;3.72;;;14.30;99.90;;;;;;5114248;28;20170;-52
2023/08/08 01:45:24;;;;;;;7.82;3.75;;;14.30;99.90;;;;;;5114664;28;20173;-52
2023/08/08 01:47:50;;;;;;;11.07;3.60;;;14.30;99.90;;;;;;5114792;28;20215;-49
2023/08/08 01:50:16;;;;;;;9.13;3.33;;;14.20;99.90;;;;;;5113802;27;20204;-50
2023/08/08 01:52:42;;;;;;;10.60;3.47;;;14.20;99.90;;;;;;5113950;28;20230;-52
2023/08/08 01:55:08;;;;;;;12.55;4.38;;;14.10;99.90;;;;;;5114104;28;20252;-50
2023/08/08 01:57:33;;;;;;;9.40;3.47;;;14.20;99.90;;;;;;5114082;28;20176;-51
2023/08/08 01:59:59;;;;;;;7.18;3.67;;;14.20;99.90;;;;;;5113976;28;20209;-53
2023/08/08 02:02:25;;;;;;;9.20;3.55;;;14.20;99.90;;;;;;5113991;28;20526;-50
2023/08/08 02:04:50;;;;;;;9.98;4.03;;;14.10;99.90;;;;;;5114072;28;20181;-51
2023/08/08 02:07:16;;;;;;;9.13;3.97;;;14.20;99.90;;;;;;5113938;28;20177;-47
2023/08/08 02:09:42;;;;;;;8.27;3.65;;;14.20;99.90;;;;;;5114133;28;20173;-49
2023/08/08 02:12:07;;;;;;;9.05;3.42;;;14.20;99.90;;;;;;5113885;28;20181;-49
2023/08/08 02:14:33;;;;;;;10.85;4.07;;;14.20;99.90;;;;;;5113883;28;20199;-49
2023/08/08 02:16:59;;;;;;;8.45;3.78;;;14.10;99.90;;;;;;5113554;28;20173;-52
2023/08/08 02:19:24;;;;;;;8.75;3.90;;;14.10;99.90;;;;;;5113581;28;20228;-50
2023/08/08 02:21:50;;;;;;;8.80;3.97;;;14.10;99.90;;;;;;5113400;28;20180;-50
2023/08/08 02:24:15;;;;;;;8.55;3.85;;;14.00;99.90;;;;;;5113526;28;20169;-51
2023/08/08 02:26:41;;;;;;;8.48;3.95;;;14.10;99.90;;;;;;5113495;28;20200;-52
2023/08/08 02:29:07;;;;;;;10.40;4.20;;;14.10;99.90;;;;;;5113428;28;20661;-49
2023/08/08 02:31:32;;;;;;;9.95;3.60;;;14.00;99.90;;;;;;5113860;28;20174;-48
2023/08/08 02:33:58;;;;;;;8.52;3.97;;;14.10;99.90;;;;;;5115667;28;20166;-53
2023/08/08 02:36:23;;;;;;;8.75;4.28;;;14.00;99.90;;;;;;5117748;28;20176;-51
2023/08/08 02:38:53;;;;;;;10.05;4.13;;;13.90;99.90;;;;;;5117957;28;20197;-51
2023/08/08 02:41:20;;;;;;;7.88;4.13;;;14.10;99.90;;;;;;5117712;28;20512;-53
2023/08/08 02:43:46;;;;;;;8.23;4.00;;;14.10;99.90;;;;;;5117642;28;20519;-52
2023/08/08 02:46:11;;;;;;;9.43;4.00;;;14.00;99.90;;;;;;5117556;28;20176;-52
2023/08/08 02:48:37;;;;;;;9.45;4.70;;;13.90;99.90;;;;;;5117515;28;20192;-48
2023/08/08 02:51:03;;;;;;;8.57;4.00;;;14.00;99.90;;;;;;5116238;28;20531;-51
2023/08/08 02:53:28;;;;;;;11.27;4.15;;;13.90;99.90;;;;;;5117415;28;20184;-49
2023/08/08 02:55:54;;;;;;;10.27;4.25;;;13.90;99.90;;;;;;5117432;28;20173;-49
2023/08/08 02:58:19;;;;;;;11.15;4.10;;;13.80;99.90;;;;;;5117291;28;20201;-49
2023/08/08 03:00:45;;;;;;;9.75;4.28;;;13.90;99.90;;;;;;5117353;28;20184;-49
2023/08/08 03:03:11;;;;;;;11.63;3.88;;;13.80;99.90;;;;;;5117314;28;20174;-49
2023/08/08 03:05:36;;;;;;;10.18;4.13;;;13.80;99.90;;;;;;5117216;28;20178;-53
2023/08/08 03:08:02;;;;;;;13.10;4.18;;;13.80;99.90;;;;;;5116049;28;20222;-49
2023/08/08 03:10:28;;;;;;;9.93;4.10;;;13.80;99.90;;;;;;5116736;28;20238;-52
2023/08/08 03:12:53;;;;;;;7.38;3.53;;;13.80;99.90;;;;;;5117109;28;20206;-48
2023/08/08 03:15:19;;;;;;;11.32;4.43;;;13.80;99.90;;;;;;5117074;28;20176;-53
2023/08/08 03:17:45;;;;;;;8.77;4.05;;;13.80;99.90;;;;;;5117049;28;20504;-50
2023/08/08 03:20:11;;;;;;;9.10;3.83;;;13.80;99.90;;;;;;5116821;28;20689;-51
2023/08/08 03:22:37;;;;;;;9.77;4.60;;;13.80;99.90;;;;;;5116917;28;20215;-52
2023/08/08 03:25:06;;;;;;;10.88;4.70;;;13.80;99.90;;;;;;5116864;28;20218;-51
2023/08/08 03:27:32;;;;;;;8.55;4.53;;;13.80;99.90;;;;;;5116571;28;20169;-48
2023/08/08 03:29:58;;;;;;;9.43;4.32;;;13.80;99.90;;;;;;5116698;28;20181;-48
2023/08/08 03:32:23;;;;;;;7.30;4.25;;;13.80;99.90;;;;;;5116994;28;20688;-49
2023/08/08 03:34:49;;;;;;;10.00;4.40;;;13.70;99.90;;;;;;5116950;28;20165;-52
2023/08/08 03:37:14;;;;;;;10.52;4.32;;;13.70;99.90;;;;;;5116628;28;20256;-51
2023/08/08 03:39:40;;;;;;;8.30;4.45;;;13.80;99.90;;;;;;5116774;28;20233;-51
2023/08/08 03:42:06;;;;;;;10.43;4.90;;;13.70;99.90;;;;;;5116289;28;20185;-49
2023/08/08 03:44:32;;;;;;;9.45;4.22;;;13.70;99.90;;;;;;5116182;28;20276;-52
2023/08/08 03:46:58;;;;;;;10.15;4.60;;;13.70;99.90;;;;;;5116435;28;20256;-51
2023/08/08 03:49:23;;;;;;;9.38;4.60;;;13.70;99.90;;;;;;5116375;28;20184;-51
2023/08/08 03:51:49;;;;;;;11.20;4.55;;;13.70;99.90;;;;;;5116512;28;20165;-51
2023/08/08 03:54:15;;;;;;;9.60;4.38;;;13.70;99.90;;;;;;5116314;28;20177;-51
2023/08/08 03:56:41;;;;;;;12.95;4.78;;;13.70;99.90;;;;;;5116273;28;20169;-51
2023/08/08 03:59:07;;;;;;;8.40;4.70;;;13.70;99.90;;;;;;5116215;28;20218;-50
2023/08/08 04:01:32;;;;;;;9.50;4.90;;;13.70;99.90;;;;;;5116203;28;20503;-48
2023/08/08 04:03:58;;;;;;;10.50;4.90;;;13.70;99.90;;;;;;5116111;28;20180;-50
2023/08/08 04:06:24;;;;;;;9.05;4.38;;;13.70;99.90;;;;;;5116084;28;20217;-50
2023/08/08 04:08:50;;;;;;;11.75;4.80;;;13.70;99.90;;;;;;5115766;28;20260;-50
2023/08/08 04:11:16;;;;;;;12.73;5.00;;;13.60;99.90;;;;;;5116250;28;20623;-51
2023/08/08 04:13:42;;;;;;;10.13;4.47;;;13.60;99.90;;;;;;5115966;28;20630;-52
2023/08/08 04:16:08;;;;;;;9.75;4.63;;;13.60;99.90;;;;;;5115905;27;20230;-51
2023/08/08 04:18:33;;;;;;;11.68;5.15;;;13.70;99.90;;;;;;5115782;28;20258;-52
2023/08/08 04:21:00;;;;;;;11.80;4.75;;;13.60;99.90;;;;;;5115935;28;20229;-51
2023/08/08 04:23:26;;;;;;;11.85;4.85;;;13.60;99.90;;;;;;5115745;28;20618;-53
2023/08/08 04:25:52;;;;;;;12.38;5.10;;;13.60;99.90;;;;;;5115649;28;20226;-49
2023/08/08 04:28:18;;;;;;;11.40;5.10;;;13.70;99.90;;;;;;5115255;28;20653;-51
2023/08/08 04:30:44;;;;;;;9.45;4.80;;;13.70;99.90;;;;;;5115639;28;20184;-52
2023/08/08 04:33:10;;;;;;;11.20;4.95;;;13.60;99.90;;;;;;5115278;28;20178;-52
2023/08/08 04:35:35;;;;;;;11.20;4.88;;;13.60;99.90;;;;;;5115420;28;20165;-52
2023/08/08 04:38:01;;;;;;;13.05;5.22;;;13.60;99.90;;;;;;5115401;28;20174;-53
2023/08/08 04:40:27;;;;;;;13.57;5.00;;;13.60;99.90;;;;;;5114781;28;20193;-51
2023/08/08 04:42:53;;;;;;;9.02;4.60;;;13.70;99.90;;;;;;5115011;28;20201;-50
2023/08/08 04:45:19;;;;;;;9.90;4.57;;;13.70;99.90;;;;;;5115323;28;20176;-51
2023/08/08 04:47:44;;;;;;;10.55;5.40;;;13.60;99.90;;;;;;5115226;28;20169;-52
2023/08/08 04:50:10;;;;;;;11.50;4.85;;;13.70;99.90;;;;;;5115131;28;20181;-52
2023/08/08 04:52:36;;;;;;;9.30;4.35;;;13.70;99.90;;;;;;5115101;28;20173;-51
2023/08/08 04:55:02;;;;;;;9.15;4.63;;;13.70;99.90;;;;;;5115429;28;20173;-51
2023/08/08 04:57:27;;;;;;;11.07;5.65;;;13.80;99.90;;;;;;5113871;28;20173;-52
2023/08/08 04:59:53;;;;;;;8.85;5.03;;;13.80;99.90;;;;;;5114479;28;20284;-48
2023/08/08 05:02:19;;;;;;;12.57;5.13;;;13.70;99.90;;;;;;5113746;28;20184;-53
2023/08/08 05:04:44;;;;;;;11.15;5.20;;;13.80;99.90;;;;;;5114663;28;20648;-53
2023/08/08 05:07:10;;;;;;;11.85;5.22;;;13.80;99.90;;;;;;5114882;28;20529;-51
2023/08/08 05:09:35;;;;;;;11.07;4.93;;;14.00;99.90;;;;;;5112857;28;20532;-52
2023/08/08 05:12:02;;;;;;;11.73;5.28;;;13.90;99.90;;;;;;5112297;28;20634;-52
2023/08/08 05:14:27;;;;;;;10.23;5.07;;;14.00;99.90;;;;;;5112591;28;20177;-51
2023/08/08 05:16:53;;;;;;;11.48;4.90;;;14.00;99.90;;;;;;5112305;28;20169;-51
2023/08/08 05:19:19;;;;;;;10.48;5.45;;;14.10;99.90;;;;;;5113556;28;20229;-52
2023/08/08 05:21:44;;;;;;;12.80;5.35;;;14.10;99.90;;;;;;5113078;28;20233;-52
2023/08/08 05:24:10;;;;;;;10.43;4.88;;;14.20;99.90;;;;;;5113441;28;20193;-50
2023/08/08 05:26:35;;;;;;;10.98;5.10;;;14.30;99.90;;;;;;5113723;28;20260;-50
2023/08/08 05:29:01;;;;;;;10.55;5.25;;;14.40;99.90;;;;;;5113360;28;20531;-51
2023/08/08 05:31:27;;;;;;;11.70;5.07;;;14.30;99.90;;;;;;5112542;28;20170;-53
2023/08/08 05:33:53;;;;;;;12.23;5.20;;;14.40;99.90;;;;;;5113654;28;20171;-49
2023/08/08 05:36:18;;;;;;;11.82;5.50;;;14.40;99.90;;;;;;5113605;28;20264;-52
2023/08/08 05:38:44;;;;;;;13.43;5.28;;;14.50;99.90;;;;;;5113498;28;20249;-51
2023/08/08 05:41:10;;;;;;;12.82;5.32;;;14.50;99.90;;;;;;5113296;28;20181;-53
2023/08/08 05:43:36;;;;;;;11.15;4.45;;;14.60;99.90;;;;;;5113725;28;20200;-51
2023/08/08 05:46:02;;;;;;;11.30;5.13;;;14.80;99.90;;;;;;5113483;28;20257;-52
2023/08/08 05:48:27;;;;;;;10.93;4.68;;;14.70;99.90;;;;;;5113476;28;20264;-51
2023/08/08 05:50:53;;;;;;;8.98;4.63;;;14.80;99.90;;;;;;5113121;28;20173;-48
2023/08/08 05:53:19;;;;;;;9.77;4.85;;;15.00;99.90;;;;;;5113032;28;20533;-53
2023/08/08 05:55:44;;;;;;;11.85;5.05;;;15.20;99.90;;;;;;5113385;28;20174;-51
2023/08/08 05:58:10;;;;;;;10.20;4.80;;;15.30;99.90;;;;;;5112962;28;20511;-54
2023/08/08 06:00:36;;;;;;;9.90;4.68;;;15.30;99.90;;;;;;5113256;28;20173;-55
2023/08/08 06:03:02;;;;;;;9.50;4.43;;;15.30;99.90;;;;;;5113241;28;20519;-52
2023/08/08 06:05:28;;;;;;;10.68;4.78;;;15.40;99.90;;;;;;5113156;28;20534;-53
2023/08/08 06:07:55;;;;;;;9.13;3.90;;;15.40;99.90;;;;;;5111799;28;20207;-49
2023/08/08 06:10:21;;;;;;;9.93;4.03;;;15.40;99.90;;;;;;5113179;28;20205;-52
2023/08/08 06:12:47;;;;;;;10.60;4.60;;;15.40;99.90;;;;;;5113130;28;20165;-52
2023/08/08 06:15:13;;;;;;;10.63;4.30;;;15.40;99.90;;;;;;5113058;28;20180;-51
2023/08/08 06:17:39;;;;;;;9.32;4.43;;;15.50;99.90;;;;;;5113064;28;20257;-53
2023/08/08 06:20:10;;;;;;;12.98;5.00;;;15.50;99.90;;;;;;5073566;28;1122599;-49
2023/08/08 06:22:36;;;;;;;10.10;4.65;;;15.60;99.90;;;;;;5113838;28;20166;-51
2023/08/08 06:25:03;;;;;;;11.45;4.63;;;15.70;99.90;;;;;;5113845;28;20727;-54
2023/08/08 06:27:30;;;;;;;10.52;4.50;;;15.90;99.90;;;;;;5113691;28;20199;-50
2023/08/08 06:29:56;;;;;;;9.23;4.13;;;15.90;99.90;;;;;;5113712;28;20177;-51
2023/08/08 06:32:21;;;;;;;10.13;4.30;;;16.10;99.90;;;;;;5113450;28;20165;-53
2023/08/08 06:34:47;;;;;;;8.27;3.92;;;16.20;99.90;;;;;;5113750;28;20181;-52
2023/08/08 06:37:13;;;;;;;10.52;4.35;;;16.40;99.90;;;;;;5113657;28;20326;-54
2023/08/08 06:39:39;;;;;;;11.63;4.15;;;16.20;99.90;;;;;;5113567;28;20557;-52
2023/08/08 06:42:05;;;;;;;9.35;4.05;;;16.10;99.90;;;;;;5113599;28;20661;-49
2023/08/08 06:44:41;;;;;;;7.05;4.18;;;16.00;99.90;;;;;;5113600;28;20170;-51
2023/08/08 06:47:07;;;;;;;9.43;3.97;;;16.00;99.90;;;;;;5113640;28;20514;-49
2023/08/08 06:49:33;;;;;;;7.95;3.65;;;16.00;99.90;;;;;;5113581;28;20180;-52
2023/08/08 06:51:58;;;;;;;10.68;3.53;;;15.90;99.90;;;;;;5113519;28;20166;-49
2023/08/08 06:54:24;;;;;;;7.80;4.10;;;15.90;99.90;;;;;;5113563;28;20630;-51
2023/08/08 06:56:49;;;;;;;9.38;4.10;;;15.90;99.90;;;;;;5113501;28;20227;-53
2023/08/08 06:59:15;;;;;;;9.90;4.30;;;15.80;99.90;;;;;;5113391;28;20228;-49
2023/08/08 07:01:41;;;;;;;11.48;4.22;;;15.80;99.90;;;;;;5113462;28;20182;-50
2023/08/08 07:04:07;;;;;;;7.65;3.72;;;15.80;99.90;;;;;;5113719;28;20178;-52
2023/08/08 07:06:32;;;;;;;13.00;4.57;;;15.80;99.90;;;;;;5113393;28;20243;-50
2023/08/08 07:08:58;;;;;;;10.90;4.00;;;15.80;99.90;;;;;;5113421;28;20634;-48
2023/08/08 07:11:24;;;;;;;10.35;4.18;;;15.80;99.90;;;;;;5113349;28;20571;-50
2023/08/08 07:13:50;;;;;;;8.68;3.83;;;15.70;99.90;;;;;;5113388;28;20177;-52
2023/08/08 07:16:16;;;;;;;11.98;4.07;;;15.80;99.90;;;;;;5113428;28;20173;-50
2023/08/08 07:18:41;;;;;;;7.53;4.18;;;15.80;99.90;;;;;;5113056;28;20680;-53
2023/08/08 07:21:07;;;;;;;9.23;4.13;;;15.80;99.90;;;;;;5116875;28;20166;-50
2023/08/08 07:23:32;;;;;;;7.85;3.92;;;15.80;99.90;;;;;;5116674;28;20169;-50
2023/08/08 07:25:58;;;;;;;8.88;4.38;;;15.90;99.90;;;;;;5116877;28;20180;-50
2023/08/08 07:28:24;;;;;;;7.40;4.03;;;16.00;99.90;;;;;;5116869;28;20270;-52
2023/08/08 07:30:50;;;;;;;8.82;3.95;;;16.20;99.90;;;;;;5116771;28;20169;-53
2023/08/08 07:33:16;;;;;;;11.55;4.40;;;16.30;99.90;;;;;;5116698;28;20180;-50
2023/08/08 07:35:42;;;;;;;9.85;4.35;;;16.40;99.90;;;;;;5116763;28;20176;-52
2023/08/08 07:38:08;;;;;;;8.50;4.35;;;16.60;99.90;;;;;;5116575;28;20256;-52
2023/08/08 07:40:34;;;;;;;10.32;4.30;;;16.60;99.90;;;;;;5116622;28;20176;-53
2023/08/08 07:42:59;;;;;;;8.52;4.10;;;16.70;99.90;;;;;;5116480;28;20173;-49
2023/08/08 07:45:25;;;;;;;9.07;4.40;;;16.80;99.90;;;;;;5116221;28;20173;-53
2023/08/08 07:47:51;;;;;;;9.10;3.83;;;16.80;99.90;;;;;;5116237;28;20173;-51
2023/08/08 07:50:16;;;;;;;7.20;3.70;;;16.90;99.90;;;;;;5116430;28;20185;-52
2023/08/08 07:52:42;;;;;;;9.65;3.88;;;16.90;99.90;;;;;;5116368;28;20196;-53
2023/08/08 07:55:08;;;;;;;9.88;3.70;;;16.80;99.90;;;;;;5116342;28;20645;-52
2023/08/08 07:57:34;;;;;;;7.30;3.45;;;16.80;99.90;;;;;;5115955;28;20531;-51
2023/08/08 08:00:07;;;;;;;6.25;3.13;;;16.70;99.90;;;;;;5116181;28;20201;-54
2023/08/08 08:02:33;;;;;;;8.07;3.45;;;16.60;99.90;;;;;;5116235;28;20164;-52
2023/08/08 08:04:58;;;;;;;6.90;3.38;;;16.60;99.90;;;;;;5115868;28;20170;-49
2023/08/08 08:07:24;;;;;;;6.10;3.53;;;16.60;99.90;;;;;;5115789;28;20180;-54
2023/08/08 08:09:50;;;;;;;8.68;3.28;;;16.50;99.90;;;;;;5115789;28;20351;-51
2023/08/08 08:12:15;;;;;;;7.82;3.30;;;16.60;99.90;;;;;;5115812;28;20177;-50
2023/08/08 08:14:41;;;;;;;8.23;3.72;;;16.50;99.90;;;;;;5115960;28;20234;-52
2023/08/08 08:17:07;;;;;;;7.18;3.22;;;16.50;99.90;;;;;;5115839;28;20165;-50
2023/08/08 08:19:33;;;;;;;7.05;3.00;;;16.40;99.90;;;;;;5115509;28;20239;-50
2023/08/08 08:21:58;;;;;;;7.13;2.92;;;16.50;99.90;;;;;;5115757;28;20216;-51
2023/08/08 08:24:24;;;;;;;7.70;3.20;;;16.50;99.90;;;;;;5115771;28;20209;-51
2023/08/08 08:26:50;;;;;;;8.38;3.60;;;16.50;99.90;;;;;;5115682;28;20617;-50
2023/08/08 08:29:16;;;;;;;5.20;3.05;;;16.50;99.90;;;;;;5115664;28;20241;-51
2023/08/08 08:31:41;;;;;;;7.25;2.90;;;16.50;99.90;;;;;;5114641;28;20180;-52
2023/08/08 08:34:07;;;;;;;7.28;3.60;;;16.40;99.90;;;;;;5115235;28;20249;-52
2023/08/08 08:36:32;;;;;;;10.88;3.35;;;16.50;99.90;;;;;;5114255;28;20184;-53
2023/08/08 08:38:58;;;;;;;7.38;3.30;;;16.50;99.90;;;;;;5115563;28;20197;-54
2023/08/08 08:41:27;;;;;;;9.82;3.47;;;16.50;99.90;;;;;;5115714;28;20293;-53
2023/08/08 08:43:54;;;;;;;6.07;3.35;;;16.60;99.90;;;;;;5115421;28;20173;-51
2023/08/08 08:46:21;;;;;;;7.85;3.85;;;16.60;99.90;;;;;;5115297;28;20174;-50
2023/08/08 08:48:49;;;;;;;6.47;4.43;;;16.70;99.90;;;;;;5115240;28;20180;-53
2023/08/08 08:51:16;;;;;;;5.70;3.35;;;16.80;99.90;;;;;;5115489;28;20562;-53
2023/08/08 08:53:46;;;;;;;9.93;3.42;;;16.70;99.90;;;;;;5114857;28;20579;-54
2023/08/08 08:56:16;;;;;;;7.78;3.15;;;16.80;99.90;;;;;;5115095;28;20184;-53
2023/08/08 08:58:42;;;;;;;8.25;3.47;;;17.00;99.90;;;;;;5115009;28;20207;-53
2023/08/08 09:01:09;;;;;;;6.47;3.08;;;17.10;99.90;;;;;;5115045;28;20278;-54
2023/08/08 09:03:36;;;;;;;6.93;3.47;;;17.10;99.90;;;;;;5114911;28;20185;-53
2023/08/08 09:06:02;;;;;;;6.40;3.15;;;17.20;99.90;;;;;;5114992;28;20629;-52
2023/08/08 09:08:29;;;;;;;9.35;3.38;;;17.30;99.90;;;;;;5114901;28;20181;-52
2023/08/08 09:10:56;;;;;;;7.05;3.50;;;17.40;99.90;;;;;;5114547;28;20674;-51
2023/08/08 09:13:22;;;;;;;5.55;3.17;;;17.50;99.90;;;;;;5114739;28;20202;-52
2023/08/08 09:15:51;;;;;;;7.75;3.72;;;17.40;99.90;;;;;;5114756;28;20266;-54
2023/08/08 09:18:17;;;;;;;11.25;3.78;;;17.50;99.90;;;;;;5114378;28;20654;-54
2023/08/08 09:20:48;;;;;;;6.82;3.30;;;17.50;99.90;;;;;;5114827;28;20217;-51
2023/08/08 09:23:14;;;;;;;5.40;3.50;;;17.50;99.90;;;;;;5114686;28;20161;-48
2023/08/08 09:25:40;;;;;;;6.78;3.17;;;17.60;99.90;;;;;;5114623;28;20174;-54
2023/08/08 09:28:05;;;;;;;6.82;3.60;;;17.60;99.90;;;;;;5114356;28;20165;-53
2023/08/08 09:30:31;;;;;;;6.35;3.53;;;17.80;99.90;;;;;;5114547;28;20169;-50
2023/08/08 09:33:01;;;;;;;6.47;3.47;;;17.90;99.90;;;;;;5114487;28;20527;-52
2023/08/08 09:35:30;;;;;;;4.72;3.13;;;18.00;99.90;;;;;;5114391;28;20173;-52
2023/08/08 09:37:56;;;;;;;7.38;3.17;;;18.00;99.90;;;;;;5114377;28;20177;-52
2023/08/08 09:40:23;;;;;;;5.35;2.83;;;18.10;99.90;;;;;;5114277;28;20657;-50
2023/08/08 09:42:51;;;;;;;6.00;2.45;;;18.20;99.90;;;;;;5114090;28;20220;-50
2023/08/08 09:45:17;;;;;;;4.80;2.30;;;18.20;99.90;;;;;;5114289;28;20165;-50
2023/08/08 09:47:43;;;;;;;7.90;2.47;;;18.20;99.90;;;;;;5114239;28;20180;-49
2023/08/08 09:50:08;;;;;;;5.88;2.47;;;18.30;99.90;;;;;;5114261;28;20177;-53
2023/08/08 09:52:35;;;;;;;2.97;2.20;;;18.50;99.90;;;;;;5114122;28;20641;-51
2023/08/08 09:55:01;;;;;;;4.13;2.20;;;18.70;99.90;;;;;;5113826;28;20618;-54
2023/08/08 09:57:27;;;;;;;4.40;1.90;;;18.90;99.90;;;;;;5113836;28;20290;-52
2023/08/08 09:59:53;;;;;;;3.90;1.92;;;19.10;99.90;;;;;;5113745;28;20562;-52
2023/08/08 10:02:19;;;;;;;6.35;2.13;;;19.10;99.90;;;;;;5114062;28;20170;-51
2023/08/08 10:04:48;;;;;;;3.38;1.73;;;19.40;99.90;;;;;;5114058;28;20169;-54
2023/08/08 10:07:14;;;;;;;7.70;1.70;;;19.50;99.90;;;;;;5114015;28;20165;-53
2023/08/08 10:09:41;;;;;;;3.53;1.60;;;19.50;99.90;;;;;;5113938;28;20213;-53
2023/08/08 10:12:08;;;;;;;6.00;1.70;;;19.50;99.90;;;;;;5113942;28;20223;-54
2023/08/08 10:14:38;;;;;;;2.40;1.60;;;19.60;99.90;;;;;;5113921;28;20244;-52
2023/08/08 10:17:04;;;;;;;3.85;1.70;;;19.60;99.90;;;;;;5113825;28;20169;-52
2023/08/08 10:19:30;;;;;;;3.50;1.50;;;19.40;99.90;;;;;;5113434;28;20278;-52
2023/08/08 10:21:59;;;;;;;3.85;1.50;;;19.40;99.90;;;;;;5113829;28;20177;-50
2023/08/08 10:24:25;;;;;;;2.47;1.40;;;19.40;99.90;;;;;;5113823;28;20169;-51
2023/08/08 10:26:59;;;;;;;3.90;1.80;;;19.00;99.90;;;;;;5113830;28;20241;-50
2023/08/08 10:29:26;;;;;;;2.60;1.60;;;18.90;99.90;;;;;;5113720;28;20225;-49
2023/08/08 10:31:57;;;;;;;3.30;1.60;;;18.70;99.90;;;;;;5113776;28;20172;-54
2023/08/08 10:34:40;;;;;;;2.90;1.50;;;18.50;99.90;;;;;;5113759;28;20165;-53
2023/08/08 10:37:12;;;;;;;3.20;1.55;;;18.40;99.90;;;;;;5113762;28;20187;-50
2023/08/08 10:39:48;;;;;;;2.10;1.58;;;18.10;99.90;;;;;;5113531;28;20197;-50
2023/08/08 10:42:19;;;;;;;3.58;1.52;;;18.00;99.90;;;;;;5113662;28;20177;-51
2023/08/08 10:44:55;;;;;;;3.83;1.60;;;18.00;99.90;;;;;;5113739;28;20157;-52
2023/08/08 10:47:25;;;;;;;3.58;1.60;;;17.80;99.90;;;;;;5113629;28;20169;-49
2023/08/08 10:50:06;;;;;;;2.33;1.70;;;17.70;99.90;;;;;;5113589;28;20638;-53
2023/08/08 10:52:35;;;;;;;2.35;1.40;;;17.60;99.90;;;;;;5113548;28;20161;-52
2023/08/08 10:55:01;;;;;;;3.28;1.95;;;17.60;99.90;;;;;;5115575;28;20634;-53
2023/08/08 10:57:27;;;;;;;2.42;1.55;;;17.50;99.90;;;;;;5117512;28;20252;-51
2023/08/08 10:59:54;;;;;;;2.97;1.70;;;17.80;99.90;;;;;;5117336;28;20323;-51
2023/08/08 11:02:20;;;;;;;1.98;1.67;;;17.90;99.90;;;;;;5117303;28;20185;-52
2023/08/08 11:04:47;;;;;;;3.00;1.60;;;18.10;99.90;;;;;;5117304;28;20263;-53
2023/08/08 11:07:14;;;;;;;3.13;1.60;;;18.30;99.90;;;;;;5117343;28;20173;-51
2023/08/08 11:09:40;;;;;;;3.75;1.52;;;18.60;99.90;;;;;;5116924;28;20196;-50
2023/08/08 11:12:12;;;;;;;3.08;1.40;;;19.00;99.90;;;;;;5117349;28;20177;-51
2023/08/08 11:14:38;;;;;;;4.05;1.67;;;19.00;99.90;;;;;;5117181;28;20161;-51
2023/08/08 11:17:05;;;;;;;4.72;1.80;;;19.00;99.90;;;;;;5117114;28;20182;-53
2023/08/08 11:19:31;;;;;;;6.70;2.00;;;18.90;99.90;;;;;;5116918;28;20224;-53
2023/08/08 11:21:57;;;;;;;3.65;1.80;;;18.70;99.90;;;;;;5116975;28;20537;-51
2023/08/08 11:24:23;;;;;;;4.50;2.08;;;18.50;99.90;;;;;;5116612;28;20177;-50
2023/08/08 11:26:49;;;;;;;2.92;2.10;;;18.40;99.90;;;;;;5116625;28;20169;-54
2023/08/08 11:29:15;;;;;;;3.13;2.00;;;18.10;99.90;;;;;;5116882;28;20529;-48
2023/08/08 11:31:41;;;;;;;2.45;2.13;;;18.00;99.90;;;;;;5116800;28;20173;-49
2023/08/08 11:34:09;;;;;;;3.90;2.05;;;18.00;99.90;;;;;;5116739;28;20221;-51
2023/08/08 11:36:36;;;;;;;2.55;2.00;;;18.40;99.90;;;;;;5116680;28;20330;-53
2023/08/08 11:39:08;;;;;;;3.53;2.17;;;18.50;99.90;;;;;;5116612;28;20200;-50
2023/08/08 11:41:35;;;;;;;5.78;2.15;;;18.60;99.90;;;;;;5116603;28;20706;-49
2023/08/08 11:44:03;;;;;;;3.83;2.40;;;18.60;99.90;;;;;;5116587;28;20254;-52
2023/08/08 11:46:28;;;;;;;4.03;2.03;;;18.50;99.90;;;;;;5116651;28;20180;-52
2023/08/08 11:48:54;;;;;;;3.45;2.08;;;18.40;99.90;;;;;;5116505;28;20174;-53
2023/08/08 11:51:19;;;;;;;3.40;2.05;;;18.50;99.90;;;;;;5116440;28;20177;-51
2023/08/08 11:53:53;;;;;;;2.58;1.90;;;18.60;99.90;;;;;;5116352;28;20205;-50
2023/08/08 11:56:21;;;;;;;4.00;2.40;;;18.80;99.90;;;;;;5116321;28;20258;-52
2023/08/08 11:58:50;;;;;;;3.17;2.05;;;19.00;99.90;;;;;;5115959;28;20685;-53
2023/08/08 12:01:16;;;;;;;3.55;2.10;;;19.00;99.90;;;;;;5116231;28;20178;-54
2023/08/08 12:03:42;;;;;;;3.28;2.20;;;19.30;99.90;;;;;;5116228;28;20248;-54
2023/08/08 12:06:15;;;;;;;4.38;2.30;;;19.40;99.90;;;;;;5116100;28;20706;-54
2023/08/08 12:08:45;;;;;;;5.20;2.25;;;19.50;99.90;;;;;;5116078;28;20192;-52
2023/08/08 12:11:12;;;;;;;4.13;2.03;;;19.60;99.90;;;;;;5116056;28;20592;-53
2023/08/08 12:13:40;;;;;;;3.22;2.00;;;19.90;99.90;;;;;;5116025;28;20248;-53
2023/08/08 12:16:10;;;;;;;3.03;1.80;;;20.10;99.90;;;;;;5115959;28;20169;-52
2023/08/08 12:18:37;;;;;;;4.05;1.70;;;20.10;99.90;;;;;;5115950;28;20207;-53
2023/08/08 12:21:08;;;;;;;2.38;1.83;;;20.10;99.90;;;;;;5115865;28;20230;-53
2023/08/08 12:23:35;;;;;;;3.63;1.60;;;20.20;99.90;;;;;;5115644;28;20207;-53
2023/08/08 12:26:04;;;;;;;3.47;1.60;;;20.40;99.90;;;;;;5115690;28;20610;-54
2023/08/08 12:28:30;;;;;;;2.90;1.85;;;20.60;99.90;;;;;;5115720;27;20189;-52
2023/08/08 12:30:56;;;;;;;2.78;1.80;;;20.70;99.90;;;;;;5115676;28;20173;-49
2023/08/08 12:33:22;;;;;;;2.30;1.60;;;20.80;99.90;;;;;;5115607;28;20208;-51
2023/08/08 12:35:48;;;;;;;1.98;1.38;;;20.70;99.90;;;;;;5115761;28;20184;-51
2023/08/08 12:38:14;;;;;;;2.50;1.50;;;20.50;99.90;;;;;;5115414;28;20173;-53
2023/08/08 12:40:40;;;;;;;2.65;1.70;;;20.30;99.90;;;;;;5115515;28;20647;-53